createdAt,value
2018-12-18T00:02:05.107Z,60.33
2018-12-18T00:04:31.279Z,57.70
2018-12-18T00:06:57.688Z,57.93
2018-12-18T00:09:23.987Z,54.30
2018-12-18T00:11:50.268Z,58.50
2018-12-18T00:14:16.473Z,58.13
2018-12-18T00:16:42.747Z,58.67
2018-12-18T00:19:09.060Z,57.13
2018-12-18T00:21:35.443Z,62.23
2018-12-18T00:24:01.772Z,60.93
2018-12-18T00:26:28.079Z,65.03
2018-12-18T00:28:54.499Z,60.10
2018-12-18T00:31:20.783Z,62.00
2018-12-18T00:33:47.313Z,64.33
2018-12-18T00:36:13.597Z,65.13
2018-12-18T00:38:39.907Z,64.87
2018-12-18T00:41:06.310Z,59.90
2018-12-18T00:43:32.619Z,63.80
2018-12-18T00:45:58.899Z,66.80
2018-12-18T00:48:25.207Z,56.30
2018-12-18T00:50:51.485Z,64.07
2018-12-18T00:53:17.786Z,57.77
2018-12-18T00:55:44.077Z,65.43
2018-12-18T00:58:10.270Z,57.10
2018-12-18T01:00:40.329Z,56.67
2018-12-18T01:03:06.586Z,60.77
2018-12-18T01:05:32.852Z,54.20
2018-12-18T01:07:59.230Z,54.27
2018-12-18T01:10:25.504Z,58.87
2018-12-18T01:12:51.721Z,58.47
2018-12-18T01:15:17.883Z,54.57
2018-12-18T01:17:44.273Z,55.60
2018-12-18T01:20:10.799Z,49.00
2018-12-18T01:22:37.063Z,58.23
2018-12-18T01:25:04.393Z,47.17
2018-12-18T01:27:30.665Z,52.57
2018-12-18T01:29:56.865Z,51.17
2018-12-18T01:32:23.154Z,60.63
2018-12-18T01:34:49.488Z,49.77
2018-12-18T01:37:16.261Z,54.17
2018-12-18T01:39:42.561Z,57.37
2018-12-18T01:42:08.836Z,56.67
2018-12-18T01:44:35.141Z,47.00
2018-12-18T01:47:01.644Z,54.67
2018-12-18T01:49:27.957Z,62.07
2018-12-18T01:51:54.229Z,54.17
2018-12-18T01:54:20.531Z,54.10
2018-12-18T01:56:46.826Z,52.90
2018-12-18T01:59:13.250Z,47.30
2018-12-18T02:01:39.553Z,51.57
2018-12-18T02:04:06.391Z,50.87
2018-12-18T02:06:32.679Z,50.53
2018-12-18T02:08:58.903Z,52.67
2018-12-18T02:11:25.081Z,50.73
2018-12-18T02:13:51.282Z,51.37
2018-12-18T02:16:17.458Z,55.80
2018-12-18T02:18:43.669Z,54.63
2018-12-18T02:21:09.965Z,56.50
2018-12-18T02:23:36.274Z,59.10
2018-12-18T02:26:02.786Z,63.20
2018-12-18T02:28:29.085Z,63.33
2018-12-18T02:30:55.472Z,64.83
2018-12-18T02:33:21.788Z,71.93
2018-12-18T02:35:48.051Z,64.43
2018-12-18T02:38:14.312Z,69.17
2018-12-18T02:40:40.629Z,62.63
2018-12-18T02:43:06.819Z,74.87
2018-12-18T02:45:33.144Z,70.03
2018-12-18T02:47:59.427Z,74.97
2018-12-18T02:50:25.752Z,65.20
2018-12-18T02:52:52.044Z,67.73
2018-12-18T02:55:18.515Z,74.27
2018-12-18T02:57:44.814Z,77.87
2018-12-18T03:00:12.508Z,73.87
2018-12-18T03:02:38.810Z,72.33
2018-12-18T03:05:05.229Z,82.07
2018-12-18T03:07:31.528Z,74.30
2018-12-18T03:09:57.841Z,71.53
2018-12-18T03:12:24.238Z,73.23
2018-12-18T03:14:50.549Z,80.50
2018-12-18T03:17:16.747Z,86.50
2018-12-18T03:19:43.102Z,85.10
2018-12-18T03:22:09.496Z,79.23
2018-12-18T03:24:35.797Z,85.80
2018-12-18T03:27:02.852Z,77.73
2018-12-18T03:29:29.377Z,83.20
2018-12-18T03:31:57.190Z,101.83
2018-12-18T03:34:28.234Z,79.27
2018-12-18T03:36:51.722Z,85.40
2018-12-18T03:39:18.031Z,85.10
2018-12-18T03:41:44.198Z,92.50
2018-12-18T03:44:10.513Z,86.93
2018-12-18T03:46:36.728Z,83.50
2018-12-18T03:49:03.023Z,91.97
2018-12-18T03:51:29.293Z,86.23
2018-12-18T03:53:55.606Z,81.27
2018-12-18T03:56:21.915Z,85.87
2018-12-18T03:58:48.207Z,77.07
2018-12-18T04:01:14.493Z,81.53
2018-12-18T04:03:40.799Z,77.30
2018-12-18T04:06:07.066Z,87.30
2018-12-18T04:08:33.343Z,77.47
2018-12-18T04:10:59.635Z,83.40
2018-12-18T04:13:25.950Z,79.60
2018-12-18T04:15:52.254Z,79.93
2018-12-18T04:18:18.520Z,87.40
2018-12-18T04:20:44.841Z,84.67
2018-12-18T04:23:11.188Z,83.97
2018-12-18T04:25:37.494Z,90.53
2018-12-18T04:28:03.662Z,91.43
2018-12-18T04:30:29.963Z,84.93
2018-12-18T04:32:56.286Z,79.87
2018-12-18T04:35:22.667Z,83.10
2018-12-18T04:37:48.946Z,76.97
2018-12-18T04:40:15.246Z,90.37
2018-12-18T04:42:41.514Z,85.57
2018-12-18T04:45:07.808Z,89.30
2018-12-18T04:47:34.077Z,80.17
2018-12-18T04:50:00.369Z,93.37
2018-12-18T04:52:26.538Z,88.33
2018-12-18T04:54:52.854Z,89.63
2018-12-18T04:57:19.117Z,85.23
2018-12-18T04:59:45.431Z,86.30
2018-12-18T05:02:11.710Z,95.50
2018-12-18T05:04:38.024Z,81.70
2018-12-18T05:07:04.305Z,87.70
2018-12-18T05:09:30.598Z,92.73
2018-12-18T05:11:56.817Z,92.77
2018-12-18T05:14:23.125Z,97.10
2018-12-18T05:16:49.416Z,87.23
2018-12-18T05:19:15.709Z,98.40
2018-12-18T05:21:41.997Z,101.10
2018-12-18T05:24:08.306Z,100.90
2018-12-18T05:26:34.591Z,105.63
2018-12-18T05:29:03.091Z,96.50
2018-12-18T05:31:29.371Z,99.87
2018-12-18T05:33:55.802Z,105.20
2018-12-18T05:36:22.118Z,96.93
2018-12-18T05:38:48.397Z,103.13
2018-12-18T05:41:14.691Z,90.70
2018-12-18T05:43:40.967Z,104.17
2018-12-18T05:46:07.267Z,93.00
2018-12-18T05:48:33.538Z,87.70
2018-12-18T05:50:59.845Z,102.03
2018-12-18T05:53:26.110Z,101.33
2018-12-18T05:55:52.482Z,86.80
2018-12-18T05:58:18.770Z,112.73
2018-12-18T06:00:45.082Z,103.57
2018-12-18T06:03:11.362Z,106.67
2018-12-18T06:05:37.674Z,96.43
2018-12-18T06:08:03.953Z,98.00
2018-12-18T06:10:30.249Z,99.57
2018-12-18T06:12:56.447Z,106.97
2018-12-18T06:15:22.883Z,113.50
2018-12-18T06:17:49.902Z,107.57
2018-12-18T06:20:16.392Z,103.43
2018-12-18T06:22:42.692Z,106.90
2018-12-18T06:25:09.005Z,94.77
2018-12-18T06:27:35.282Z,91.77
2018-12-18T06:30:01.601Z,95.33
2018-12-18T06:32:27.997Z,103.93
2018-12-18T06:34:54.276Z,104.23
2018-12-18T06:37:20.737Z,100.80
2018-12-18T06:39:46.935Z,99.37
2018-12-18T06:42:13.214Z,91.70
2018-12-18T06:44:39.601Z,98.20
2018-12-18T06:47:05.874Z,94.07
2018-12-18T06:49:32.174Z,105.77
2018-12-18T06:51:58.462Z,97.03
2018-12-18T06:54:24.769Z,100.93
2018-12-18T06:56:51.045Z,108.73
2018-12-18T06:59:17.353Z,100.03
2018-12-18T07:01:43.717Z,105.30
2018-12-18T07:04:10.007Z,110.30
2018-12-18T07:06:36.337Z,104.07
2018-12-18T07:09:06.237Z,103.83
2018-12-18T07:11:32.556Z,111.40
2018-12-18T07:13:58.937Z,114.87
2018-12-18T07:16:25.278Z,116.30
2018-12-18T07:18:51.552Z,105.23
2018-12-18T07:21:17.940Z,111.07
2018-12-18T07:23:44.232Z,109.90
2018-12-18T07:26:10.532Z,104.13
2018-12-18T07:28:36.727Z,97.80
2018-12-18T07:31:03.053Z,95.60
2018-12-18T07:33:29.343Z,83.80
2018-12-18T07:35:55.654Z,89.73
2018-12-18T07:38:21.931Z,91.10
2018-12-18T07:40:48.218Z,99.23
2018-12-18T07:43:14.499Z,95.87
2018-12-18T07:45:40.817Z,91.20
2018-12-18T07:48:07.053Z,94.53
2018-12-18T07:50:33.361Z,93.30
2018-12-18T07:52:59.572Z,84.13
2018-12-18T07:55:25.898Z,94.47
2018-12-18T07:57:52.178Z,86.23
2018-12-18T08:00:18.503Z,88.63
2018-12-18T08:02:44.896Z,86.67
2018-12-18T08:05:11.345Z,89.53
2018-12-18T08:07:37.523Z,89.43
2018-12-18T08:10:05.452Z,78.90
2018-12-18T08:12:31.734Z,80.97
2018-12-18T08:14:58.052Z,85.87
2018-12-18T08:17:24.444Z,85.03
2018-12-18T08:19:50.823Z,81.93
2018-12-18T08:22:17.103Z,78.07
2018-12-18T08:24:43.368Z,80.80
2018-12-18T08:27:09.609Z,80.57
2018-12-18T08:29:35.787Z,77.27
2018-12-18T08:32:02.090Z,78.07
2018-12-18T08:34:28.367Z,79.93
2018-12-18T08:36:54.898Z,70.33
2018-12-18T08:39:21.185Z,75.93
2018-12-18T08:41:47.493Z,71.90
2018-12-18T08:44:13.762Z,76.90
2018-12-18T08:46:40.077Z,76.43
2018-12-18T08:49:06.355Z,64.30
2018-12-18T08:51:32.658Z,67.70
2018-12-18T08:53:58.967Z,68.97
2018-12-18T08:56:25.315Z,66.13
2018-12-18T08:58:51.598Z,64.00
2018-12-18T09:01:17.820Z,61.10
2018-12-18T09:03:44.170Z,65.67
2018-12-18T09:06:10.390Z,62.97
2018-12-18T09:08:36.687Z,70.07
2018-12-18T09:11:03.117Z,64.77
2018-12-18T09:13:29.319Z,67.60
2018-12-18T09:15:55.628Z,68.03
2018-12-18T09:18:21.908Z,61.83
2018-12-18T09:20:48.342Z,67.87
2018-12-18T09:23:14.630Z,63.87
2018-12-18T09:25:41.048Z,59.60
2018-12-18T09:28:07.330Z,65.80
2018-12-18T09:30:33.646Z,62.70
2018-12-18T09:32:59.930Z,57.80
2018-12-18T09:35:26.258Z,58.60
2018-12-18T09:37:54.549Z,61.23
2018-12-18T09:40:21.081Z,58.87
2018-12-18T09:42:53.770Z,66.70
2018-12-18T09:45:20.044Z,64.43
2018-12-18T09:47:46.354Z,64.20
2018-12-18T09:50:12.640Z,65.07
2018-12-18T09:52:38.947Z,60.53
2018-12-18T09:55:05.371Z,57.40
2018-12-18T09:57:37.911Z,60.73
2018-12-18T10:00:07.059Z,55.27
2018-12-18T10:02:33.879Z,55.50
2018-12-18T10:05:00.161Z,54.20
2018-12-18T10:07:26.339Z,57.47
2018-12-18T10:09:52.648Z,58.90
2018-12-18T10:12:20.978Z,58.03
2018-12-18T10:14:47.285Z,51.90
2018-12-18T10:17:13.563Z,59.10
2018-12-18T10:19:39.864Z,53.90
2018-12-18T10:22:06.147Z,53.60
2018-12-18T10:24:32.470Z,57.10
2018-12-18T10:26:58.775Z,50.93
2018-12-18T10:29:25.107Z,45.53
2018-12-18T10:31:51.386Z,45.90
2018-12-18T10:34:17.697Z,42.40
2018-12-18T10:36:44.025Z,44.03
2018-12-18T10:39:10.372Z,48.03
2018-12-18T10:41:36.556Z,46.27
2018-12-18T10:44:03.074Z,46.17
2018-12-18T10:46:29.337Z,50.87
2018-12-18T10:48:55.618Z,46.93
2018-12-18T10:51:21.874Z,45.27
2018-12-18T10:53:48.208Z,43.17
2018-12-18T10:56:14.508Z,48.07
2018-12-18T10:58:40.862Z,49.40
2018-12-18T11:01:13.096Z,44.07
2018-12-18T11:03:39.319Z,42.00
2018-12-18T11:06:09.913Z,44.60
2018-12-18T11:08:34.078Z,46.77
2018-12-18T11:11:00.566Z,43.10
2018-12-18T11:13:26.872Z,39.10
2018-12-18T11:15:53.145Z,41.90
2018-12-18T11:18:19.449Z,41.87
2018-12-18T11:20:45.630Z,42.00
2018-12-18T11:23:11.950Z,45.67
2018-12-18T11:25:38.142Z,46.33
2018-12-18T11:28:04.464Z,44.27
2018-12-18T11:30:30.751Z,44.63
2018-12-18T11:32:56.924Z,52.83
2018-12-18T11:35:23.254Z,48.03
2018-12-18T11:37:49.435Z,48.83
2018-12-18T11:40:15.762Z,48.27
2018-12-18T11:42:41.991Z,44.77
2018-12-18T11:45:08.414Z,47.73
2018-12-18T11:47:34.682Z,46.43
2018-12-18T11:50:01.372Z,48.07
2018-12-18T11:52:27.641Z,45.77
2018-12-18T11:54:53.949Z,46.27
2018-12-18T11:57:20.228Z,42.70
2018-12-18T11:59:46.538Z,44.20
2018-12-18T12:02:12.827Z,45.13
2018-12-18T12:04:39.123Z,44.80
2018-12-18T12:07:05.525Z,45.10
2018-12-18T12:09:32.747Z,39.50
2018-12-18T12:11:59.031Z,42.97
2018-12-18T12:14:25.378Z,41.10
2018-12-18T12:16:51.659Z,40.93
2018-12-18T12:19:17.954Z,43.90
2018-12-18T12:21:44.235Z,40.10
2018-12-18T12:24:10.547Z,36.40
2018-12-18T12:26:36.709Z,39.70
2018-12-18T12:29:02.937Z,37.10
2018-12-18T12:31:29.352Z,41.00
2018-12-18T12:33:55.775Z,41.40
2018-12-18T12:36:22.074Z,39.70
2018-12-18T12:38:48.436Z,44.40
2018-12-18T12:41:14.741Z,44.37
2018-12-18T12:43:41.022Z,49.20
2018-12-18T12:46:07.335Z,39.97
2018-12-18T12:48:39.898Z,46.43
2018-12-18T12:51:06.256Z,42.40
2018-12-18T12:53:32.547Z,41.60
2018-12-18T12:55:58.924Z,45.37
2018-12-18T12:58:25.230Z,50.70
2018-12-18T13:00:51.641Z,46.27
2018-12-18T13:03:17.823Z,50.83
2018-12-18T13:05:44.126Z,47.53
2018-12-18T13:08:10.407Z,53.57
2018-12-18T13:10:36.637Z,45.77
2018-12-18T13:13:02.987Z,52.90
2018-12-18T13:15:29.309Z,50.80
2018-12-18T13:17:55.591Z,57.00
2018-12-18T13:20:21.934Z,47.80
2018-12-18T13:22:48.358Z,47.27
2018-12-18T13:25:14.673Z,50.63
2018-12-18T13:27:40.945Z,48.90
2018-12-18T13:30:07.369Z,50.10
2018-12-18T13:32:33.649Z,47.97
2018-12-18T13:35:00.191Z,52.20
2018-12-18T13:37:26.523Z,51.07
2018-12-18T13:39:52.820Z,50.33
2018-12-18T13:42:19.105Z,51.57
2018-12-18T13:44:45.412Z,53.13
2018-12-18T13:47:11.686Z,58.53
2018-12-18T13:49:37.889Z,53.03
2018-12-18T13:52:04.191Z,44.57
2018-12-18T13:54:30.500Z,46.20
2018-12-18T13:56:56.679Z,45.60
2018-12-18T13:59:22.959Z,48.17
2018-12-18T14:01:49.318Z,46.00
2018-12-18T14:04:15.605Z,49.73
2018-12-18T14:06:41.920Z,47.97
2018-12-18T14:09:08.214Z,53.53
2018-12-18T14:11:34.658Z,49.23
2018-12-18T14:14:02.241Z,45.63
2018-12-18T14:16:28.529Z,50.57
2018-12-18T14:18:54.833Z,55.93
2018-12-18T14:21:21.129Z,53.43
2018-12-18T14:23:47.512Z,52.03
2018-12-18T14:26:13.818Z,54.00
2018-12-18T14:28:40.152Z,56.20
2018-12-18T14:31:06.333Z,55.43
2018-12-18T14:33:32.770Z,58.30
2018-12-18T14:35:59.061Z,53.60
2018-12-18T14:38:25.391Z,56.87
2018-12-18T14:40:51.732Z,57.87
2018-12-18T14:43:18.014Z,58.43
2018-12-18T14:45:44.449Z,54.73
2018-12-18T14:48:10.730Z,48.23
2018-12-18T14:50:36.976Z,48.97
2018-12-18T14:53:03.276Z,49.43
2018-12-18T14:55:29.618Z,53.73
2018-12-18T14:57:56.118Z,49.27
2018-12-18T15:00:22.527Z,51.83
2018-12-18T15:02:48.838Z,48.30
2018-12-18T15:05:15.118Z,50.30
2018-12-18T15:07:41.334Z,46.67
2018-12-18T15:10:07.906Z,53.07
2018-12-18T15:12:34.153Z,50.20
2018-12-18T15:15:00.458Z,51.00
2018-12-18T15:17:26.686Z,46.90
2018-12-18T15:19:53.017Z,46.03
2018-12-18T15:22:19.299Z,45.20
2018-12-18T15:24:45.743Z,44.30
2018-12-18T15:27:12.108Z,43.07
2018-12-18T15:29:38.417Z,45.07
2018-12-18T15:32:04.698Z,45.70
2018-12-18T15:34:31.016Z,44.90
2018-12-18T15:36:57.282Z,42.37
2018-12-18T15:39:23.567Z,45.60
2018-12-18T15:41:49.891Z,42.30
2018-12-18T15:44:16.169Z,33.90
2018-12-18T15:46:42.380Z,36.90
2018-12-18T15:49:08.692Z,37.13
2018-12-18T15:51:35.133Z,34.20
2018-12-18T15:54:02.699Z,34.60
2018-12-18T15:56:28.978Z,37.17
2018-12-18T15:58:55.366Z,36.87
2018-12-18T16:01:21.695Z,34.20
2018-12-18T16:03:47.918Z,41.07
2018-12-18T16:06:14.244Z,37.07
2018-12-18T16:08:40.574Z,35.37
2018-12-18T16:11:06.759Z,34.87
2018-12-18T16:13:33.083Z,39.97
2018-12-18T16:15:59.409Z,33.47
2018-12-18T16:18:25.677Z,36.53
2018-12-18T16:20:51.950Z,36.63
2018-12-18T16:23:18.291Z,37.60
2018-12-18T16:25:44.559Z,36.10
2018-12-18T16:28:10.874Z,40.30
2018-12-18T16:30:37.192Z,36.60
2018-12-18T16:33:03.472Z,36.60
2018-12-18T16:35:29.780Z,37.50
2018-12-18T16:37:56.194Z,36.83
2018-12-18T16:40:22.506Z,39.53
2018-12-18T16:42:48.859Z,49.27
2018-12-18T16:45:15.186Z,41.53
2018-12-18T16:47:41.467Z,44.40
2018-12-18T16:50:07.933Z,37.73
2018-12-18T16:52:34.210Z,38.97
2018-12-18T16:55:00.481Z,35.63
2018-12-18T16:57:26.707Z,37.17
2018-12-18T16:59:52.990Z,36.90
2018-12-18T17:02:19.651Z,36.27
2018-12-18T17:04:45.986Z,36.00
2018-12-18T17:07:12.294Z,38.13
2018-12-18T17:09:38.567Z,38.83
2018-12-18T17:12:04.893Z,42.43
2018-12-18T17:14:31.173Z,38.93
2018-12-18T17:16:57.535Z,35.13
2018-12-18T17:19:23.815Z,35.77
2018-12-18T17:21:50.041Z,33.73
2018-12-18T17:24:16.343Z,36.00
2018-12-18T17:26:42.621Z,35.00
2018-12-18T17:29:08.957Z,34.33
2018-12-18T17:31:35.230Z,35.63
2018-12-18T17:34:01.902Z,31.47
2018-12-18T17:36:28.180Z,32.27
2018-12-18T17:38:54.524Z,31.60
2018-12-18T17:41:20.717Z,31.67
2018-12-18T17:43:47.374Z,33.63
2018-12-18T17:46:13.701Z,33.40
2018-12-18T17:48:40.015Z,30.97
2018-12-18T17:51:06.339Z,36.80
2018-12-18T17:53:32.619Z,32.30
2018-12-18T17:55:58.929Z,33.40
2018-12-18T17:58:25.282Z,30.90
2018-12-18T18:00:51.565Z,35.67
2018-12-18T18:03:17.845Z,36.60
2018-12-18T18:05:44.193Z,35.97
2018-12-18T18:08:10.577Z,30.63
2018-12-18T18:10:36.815Z,39.53
2018-12-18T18:13:03.092Z,36.03
2018-12-18T18:15:29.678Z,35.17
2018-12-18T18:17:56.003Z,38.30
2018-12-18T18:20:22.745Z,34.87
2018-12-18T18:22:49.212Z,36.93
2018-12-18T18:25:15.557Z,37.80
2018-12-18T18:27:41.788Z,35.13
2018-12-18T18:30:08.341Z,34.67
2018-12-18T18:32:34.603Z,32.80
2018-12-18T18:35:00.909Z,37.10
2018-12-18T18:37:27.266Z,35.10
2018-12-18T18:39:53.563Z,36.40
2018-12-18T18:42:19.821Z,30.93
2018-12-18T18:44:46.225Z,31.60
2018-12-18T18:47:12.557Z,33.87
2018-12-18T18:49:38.853Z,34.63
2018-12-18T18:52:05.224Z,37.67
2018-12-18T18:54:31.501Z,36.87
2018-12-18T18:56:57.835Z,31.73
2018-12-18T18:59:24.218Z,36.10
2018-12-18T19:01:50.487Z,40.10
2018-12-18T19:04:16.698Z,34.77
2018-12-18T19:06:43.645Z,35.57
2018-12-18T19:09:09.921Z,32.70
2018-12-18T19:11:36.926Z,33.47
2018-12-18T19:14:04.321Z,36.20
2018-12-18T19:16:30.655Z,33.60
2018-12-18T19:18:56.887Z,35.87
2018-12-18T19:21:23.166Z,34.37
2018-12-18T19:23:49.596Z,33.93
2018-12-18T19:26:15.894Z,35.07
2018-12-18T19:28:42.362Z,34.90
2018-12-18T19:31:08.794Z,35.80
2018-12-18T19:33:36.930Z,36.90
2018-12-18T19:36:03.450Z,36.93
2018-12-18T19:38:29.829Z,35.80
2018-12-18T19:40:56.161Z,34.20
2018-12-18T19:43:22.496Z,32.50
2018-12-18T19:45:48.823Z,31.80
2018-12-18T19:48:15.110Z,36.27
2018-12-18T19:50:41.509Z,35.13
2018-12-18T19:53:07.786Z,34.83
2018-12-18T19:55:34.117Z,34.00
2018-12-18T19:58:00.426Z,35.83
2018-12-18T20:00:26.703Z,34.80
2018-12-18T20:02:52.981Z,35.40
2018-12-18T20:05:19.299Z,31.10
2018-12-18T20:07:45.619Z,33.33
2018-12-18T20:10:11.947Z,36.70
2018-12-18T20:12:38.266Z,34.30
2018-12-18T20:15:04.762Z,36.03
2018-12-18T20:17:31.227Z,31.80
2018-12-18T20:19:57.630Z,36.10
2018-12-18T20:22:24.457Z,33.13
2018-12-18T20:24:50.778Z,33.13
2018-12-18T20:27:16.989Z,34.70
2018-12-18T20:29:43.310Z,33.03
2018-12-18T20:32:09.671Z,37.07
2018-12-18T20:34:36.005Z,31.60
2018-12-18T20:37:02.352Z,33.90
2018-12-18T20:39:28.683Z,33.97
2018-12-18T20:41:56.368Z,31.10
2018-12-18T20:44:23.038Z,32.77
2018-12-18T20:46:49.416Z,38.23
2018-12-18T20:49:15.725Z,31.90
2018-12-18T20:51:42.047Z,34.30
2018-12-18T20:54:08.347Z,32.50
2018-12-18T20:56:34.576Z,32.10
2018-12-18T20:59:00.950Z,30.67
2018-12-18T21:01:28.590Z,34.30
2018-12-18T21:03:55.099Z,34.40
2018-12-18T21:06:21.559Z,34.73
2018-12-18T21:08:47.968Z,33.77
2018-12-18T21:11:14.485Z,34.50
2018-12-18T21:13:41.056Z,36.93
2018-12-18T21:16:07.456Z,34.03
2018-12-18T21:18:34.127Z,33.30
2018-12-18T21:21:01.138Z,33.00
2018-12-18T21:23:27.581Z,37.10
2018-12-18T21:25:54.056Z,32.67
2018-12-18T21:28:20.445Z,36.07
2018-12-18T21:30:46.750Z,37.80
2018-12-18T21:33:13.203Z,33.83
2018-12-18T21:35:39.642Z,40.43
2018-12-18T21:38:06.093Z,34.67
2018-12-18T21:40:32.670Z,33.20
2018-12-18T21:42:59.145Z,36.23
2018-12-18T21:45:25.528Z,36.37
2018-12-18T21:47:51.926Z,34.67
2018-12-18T21:50:18.391Z,34.57
2018-12-18T21:52:44.827Z,38.40
2018-12-18T21:55:11.310Z,38.95
2018-12-18T21:57:37.752Z,35.60
2018-12-18T22:00:06.885Z,40.37
2018-12-18T22:02:33.321Z,36.40
2018-12-18T22:04:59.746Z,40.67
2018-12-18T22:07:26.145Z,40.40
2018-12-18T22:09:52.591Z,38.20
2018-12-18T22:12:18.999Z,37.07
2018-12-18T22:14:45.414Z,35.43
2018-12-18T22:17:11.818Z,35.87
2018-12-18T22:19:38.242Z,43.77
2018-12-18T22:22:04.655Z,37.87
2018-12-18T22:24:31.112Z,36.17
2018-12-18T22:26:57.369Z,39.23
2018-12-18T22:29:23.692Z,37.07
2018-12-18T22:31:49.978Z,36.33
2018-12-18T22:34:16.270Z,43.80
2018-12-18T22:36:42.537Z,41.43
2018-12-18T22:39:08.854Z,38.90
2018-12-18T22:41:35.237Z,37.50
2018-12-18T22:44:01.513Z,41.43
2018-12-18T22:46:27.818Z,35.07
2018-12-18T22:48:54.094Z,36.07
2018-12-18T22:51:20.506Z,37.83
2018-12-18T22:53:46.675Z,34.73
2018-12-18T22:56:12.995Z,36.30
2018-12-18T22:58:39.289Z,36.10
2018-12-18T23:01:12.010Z,33.07
2018-12-18T23:03:38.439Z,37.70
2018-12-18T23:06:04.736Z,35.77
2018-12-18T23:08:31.246Z,34.27
2018-12-18T23:10:57.591Z,39.80
2018-12-18T23:13:23.896Z,34.00
2018-12-18T23:15:50.599Z,34.30
2018-12-18T23:18:16.871Z,39.73
2018-12-18T23:20:43.177Z,39.70
2018-12-18T23:23:09.457Z,39.53
2018-12-18T23:25:35.782Z,40.93
2018-12-18T23:28:02.211Z,43.13
2018-12-18T23:30:28.555Z,40.93
2018-12-18T23:32:54.850Z,41.20
2018-12-18T23:35:21.191Z,39.60
2018-12-18T23:37:47.453Z,40.33
2018-12-18T23:40:13.774Z,42.93
2018-12-18T23:42:39.969Z,42.57
2018-12-18T23:45:06.306Z,39.30
2018-12-18T23:47:32.834Z,36.97
2018-12-18T23:49:59.039Z,36.93
2018-12-18T23:52:25.742Z,37.83
2018-12-18T23:54:52.049Z,36.00
2018-12-18T23:57:18.305Z,37.10
2018-12-18T23:59:44.623Z,35.67
